sensor_id;sensor_type;location;lat;lon;timestamp;P1;durP1;ratioP1;P2;durP2;ratioP2
69754;SDS011;57023;52.218;5.158;2023-03-29T00:00:18;8.73;;;3.65;;
69754;SDS011;57023;52.218;5.158;2023-03-29T00:02:43;5.85;;;3.00;;
69754;SDS011;57023;52.218;5.158;2023-03-29T00:05:13;7.32;;;3.47;;
69754;SDS011;57023;52.218;5.158;2023-03-29T00:07:39;6.75;;;3.20;;
69754;SDS011;57023;52.218;5.158;2023-03-29T00:10:05;6.18;;;3.28;;
69754;SDS011;57023;52.218;5.158;2023-03-29T00:12:31;6.03;;;3.00;;
69754;SDS011;57023;52.218;5.158;2023-03-29T00:14:57;7.10;;;3.40;;
69754;SDS011;57023;52.218;5.158;2023-03-29T00:17:22;6.70;;;3.15;;
69754;SDS011;57023;52.218;5.158;2023-03-29T00:19:48;4.90;;;3.10;;
69754;SDS011;57023;52.218;5.158;2023-03-29T00:22:14;5.53;;;3.13;;
69754;SDS011;57023;52.218;5.158;2023-03-29T00:24:39;5.50;;;3.20;;
69754;SDS011;57023;52.218;5.158;2023-03-29T00:27:05;6.30;;;2.90;;
69754;SDS011;57023;52.218;5.158;2023-03-29T00:29:30;5.93;;;3.00;;
69754;SDS011;57023;52.218;5.158;2023-03-29T00:31:56;5.90;;;2.97;;
69754;SDS011;57023;52.218;5.158;2023-03-29T00:34:22;6.47;;;3.28;;
69754;SDS011;57023;52.218;5.158;2023-03-29T00:36:48;6.13;;;3.40;;
69754;SDS011;57023;52.218;5.158;2023-03-29T00:39:15;6.38;;;3.17;;
69754;SDS011;57023;52.218;5.158;2023-03-29T00:41:44;7.10;;;3.35;;
69754;SDS011;57023;52.218;5.158;2023-03-29T00:47:35;5.85;;;3.22;;
69754;SDS011;57023;52.218;5.158;2023-03-29T00:50:15;5.60;;;3.00;;
69754;SDS011;57023;52.218;5.158;2023-03-29T00:52:43;4.95;;;2.70;;
69754;SDS011;57023;52.218;5.158;2023-03-29T00:55:14;8.05;;;3.65;;
69754;SDS011;57023;52.218;5.158;2023-03-29T00:57:42;7.88;;;3.40;;
69754;SDS011;57023;52.218;5.158;2023-03-29T01:00:10;7.75;;;3.60;;
69754;SDS011;57023;52.218;5.158;2023-03-29T01:02:41;5.88;;;3.85;;
69754;SDS011;57023;52.218;5.158;2023-03-29T01:05:08;6.95;;;3.45;;
69754;SDS011;57023;52.218;5.158;2023-03-29T01:07:52;8.85;;;3.17;;
69754;SDS011;57023;52.218;5.158;2023-03-29T01:10:43;5.25;;;3.25;;
69754;SDS011;57023;52.218;5.158;2023-03-29T01:13:12;6.45;;;3.78;;
69754;SDS011;57023;52.218;5.158;2023-03-29T01:15:42;6.38;;;3.55;;
69754;SDS011;57023;52.218;5.158;2023-03-29T01:18:09;6.95;;;4.00;;
69754;SDS011;57023;52.218;5.158;2023-03-29T01:26:10;7.00;;;3.67;;
69754;SDS011;57023;52.218;5.158;2023-03-29T01:29:01;7.38;;;3.78;;
69754;SDS011;57023;52.218;5.158;2023-03-29T01:31:30;7.90;;;3.40;;
69754;SDS011;57023;52.218;5.158;2023-03-29T01:34:03;7.75;;;3.60;;
69754;SDS011;57023;52.218;5.158;2023-03-29T01:39:13;7.72;;;4.10;;
69754;SDS011;57023;52.218;5.158;2023-03-29T01:44:11;7.18;;;3.65;;
69754;SDS011;57023;52.218;5.158;2023-03-29T01:49:54;7.75;;;3.90;;
69754;SDS011;57023;52.218;5.158;2023-03-29T01:52:35;5.93;;;3.28;;
69754;SDS011;57023;52.218;5.158;2023-03-29T01:54:56;8.70;;;3.95;;
69754;SDS011;57023;52.218;5.158;2023-03-29T01:57:25;8.85;;;3.78;;
69754;SDS011;57023;52.218;5.158;2023-03-29T01:59:51;7.68;;;3.63;;
69754;SDS011;57023;52.218;5.158;2023-03-29T02:02:21;7.07;;;3.60;;
69754;SDS011;57023;52.218;5.158;2023-03-29T02:04:49;8.05;;;3.60;;
69754;SDS011;57023;52.218;5.158;2023-03-29T02:07:18;6.13;;;3.70;;
69754;SDS011;57023;52.218;5.158;2023-03-29T02:09:46;7.75;;;4.22;;
69754;SDS011;57023;52.218;5.158;2023-03-29T02:12:13;8.63;;;4.53;;
69754;SDS011;57023;52.218;5.158;2023-03-29T02:14:40;8.30;;;4.18;;
69754;SDS011;57023;52.218;5.158;2023-03-29T02:17:15;8.95;;;3.45;;
69754;SDS011;57023;52.218;5.158;2023-03-29T02:19:48;8.95;;;3.90;;
69754;SDS011;57023;52.218;5.158;2023-03-29T02:25:34;7.97;;;4.53;;
69754;SDS011;57023;52.218;5.158;2023-03-29T02:28:01;6.93;;;3.80;;
69754;SDS011;57023;52.218;5.158;2023-03-29T02:30:29;7.07;;;4.20;;
69754;SDS011;57023;52.218;5.158;2023-03-29T02:33:00;6.68;;;4.10;;
69754;SDS011;57023;52.218;5.158;2023-03-29T02:35:32;8.07;;;3.83;;
69754;SDS011;57023;52.218;5.158;2023-03-29T02:38:00;10.63;;;4.53;;
69754;SDS011;57023;52.218;5.158;2023-03-29T02:40:27;6.65;;;4.10;;
69754;SDS011;57023;52.218;5.158;2023-03-29T02:42:53;6.07;;;3.80;;
69754;SDS011;57023;52.218;5.158;2023-03-29T02:45:20;7.57;;;3.83;;
69754;SDS011;57023;52.218;5.158;2023-03-29T02:47:49;7.85;;;4.28;;
69754;SDS011;57023;52.218;5.158;2023-03-29T02:50:16;5.90;;;3.88;;
69754;SDS011;57023;52.218;5.158;2023-03-29T02:52:49;7.53;;;4.40;;
69754;SDS011;57023;52.218;5.158;2023-03-29T02:55:17;9.10;;;4.43;;
69754;SDS011;57023;52.218;5.158;2023-03-29T02:57:42;8.73;;;4.20;;
69754;SDS011;57023;52.218;5.158;2023-03-29T03:00:08;7.13;;;4.10;;
69754;SDS011;57023;52.218;5.158;2023-03-29T03:02:35;7.45;;;4.10;;
69754;SDS011;57023;52.218;5.158;2023-03-29T03:05:02;8.73;;;4.35;;
69754;SDS011;57023;52.218;5.158;2023-03-29T03:07:27;7.85;;;4.28;;
69754;SDS011;57023;52.218;5.158;2023-03-29T03:09:53;8.25;;;4.35;;
69754;SDS011;57023;52.218;5.158;2023-03-29T03:12:19;8.43;;;4.32;;
69754;SDS011;57023;52.218;5.158;2023-03-29T03:14:44;7.68;;;4.55;;
69754;SDS011;57023;52.218;5.158;2023-03-29T03:17:10;6.70;;;3.67;;
69754;SDS011;57023;52.218;5.158;2023-03-29T03:19:35;8.88;;;4.50;;
69754;SDS011;57023;52.218;5.158;2023-03-29T03:22:00;7.75;;;4.15;;
69754;SDS011;57023;52.218;5.158;2023-03-29T03:24:26;10.50;;;4.05;;
69754;SDS011;57023;52.218;5.158;2023-03-29T03:26:52;7.15;;;4.13;;
69754;SDS011;57023;52.218;5.158;2023-03-29T03:29:17;7.60;;;4.40;;
69754;SDS011;57023;52.218;5.158;2023-03-29T03:31:43;8.90;;;4.80;;
69754;SDS011;57023;52.218;5.158;2023-03-29T03:34:08;8.10;;;3.95;;
69754;SDS011;57023;52.218;5.158;2023-03-29T03:36:35;8.13;;;4.32;;
69754;SDS011;57023;52.218;5.158;2023-03-29T03:39:03;9.10;;;4.55;;
69754;SDS011;57023;52.218;5.158;2023-03-29T03:41:29;7.78;;;4.53;;
69754;SDS011;57023;52.218;5.158;2023-03-29T03:43:55;8.23;;;4.40;;
69754;SDS011;57023;52.218;5.158;2023-03-29T03:46:20;9.25;;;4.57;;
69754;SDS011;57023;52.218;5.158;2023-03-29T03:48:46;8.43;;;3.95;;
69754;SDS011;57023;52.218;5.158;2023-03-29T03:51:11;10.80;;;4.80;;
69754;SDS011;57023;52.218;5.158;2023-03-29T03:53:38;7.72;;;4.72;;
69754;SDS011;57023;52.218;5.158;2023-03-29T03:56:03;8.23;;;4.65;;
69754;SDS011;57023;52.218;5.158;2023-03-29T03:58:35;7.50;;;4.35;;
69754;SDS011;57023;52.218;5.158;2023-03-29T04:01:01;7.80;;;4.25;;
69754;SDS011;57023;52.218;5.158;2023-03-29T04:03:27;9.20;;;5.07;;
69754;SDS011;57023;52.218;5.158;2023-03-29T04:05:53;7.53;;;4.60;;
69754;SDS011;57023;52.218;5.158;2023-03-29T04:08:18;8.43;;;4.53;;
69754;SDS011;57023;52.218;5.158;2023-03-29T04:10:52;10.73;;;4.90;;
69754;SDS011;57023;52.218;5.158;2023-03-29T04:13:19;7.75;;;3.60;;
69754;SDS011;57023;52.218;5.158;2023-03-29T04:15:45;9.88;;;4.82;;
69754;SDS011;57023;52.218;5.158;2023-03-29T04:18:13;8.30;;;4.65;;
69754;SDS011;57023;52.218;5.158;2023-03-29T04:20:40;8.98;;;5.05;;
69754;SDS011;57023;52.218;5.158;2023-03-29T04:23:05;7.25;;;4.50;;
69754;SDS011;57023;52.218;5.158;2023-03-29T04:25:33;7.55;;;4.60;;
69754;SDS011;57023;52.218;5.158;2023-03-29T04:27:59;9.60;;;3.97;;
69754;SDS011;57023;52.218;5.158;2023-03-29T04:30:24;7.68;;;4.78;;
69754;SDS011;57023;52.218;5.158;2023-03-29T04:32:49;7.57;;;4.80;;
69754;SDS011;57023;52.218;5.158;2023-03-29T04:35:15;8.27;;;4.55;;
69754;SDS011;57023;52.218;5.158;2023-03-29T04:37:40;10.20;;;4.40;;
69754;SDS011;57023;52.218;5.158;2023-03-29T04:40:06;8.18;;;4.50;;
69754;SDS011;57023;52.218;5.158;2023-03-29T04:45:10;8.13;;;4.75;;
69754;SDS011;57023;52.218;5.158;2023-03-29T04:47:37;9.10;;;4.85;;
69754;SDS011;57023;52.218;5.158;2023-03-29T04:50:04;8.60;;;4.80;;
69754;SDS011;57023;52.218;5.158;2023-03-29T04:52:30;7.32;;;4.05;;
69754;SDS011;57023;52.218;5.158;2023-03-29T04:55:01;6.35;;;4.15;;
69754;SDS011;57023;52.218;5.158;2023-03-29T04:57:28;7.88;;;4.63;;
69754;SDS011;57023;52.218;5.158;2023-03-29T04:59:53;7.13;;;3.88;;
69754;SDS011;57023;52.218;5.158;2023-03-29T05:02:19;7.50;;;4.30;;
69754;SDS011;57023;52.218;5.158;2023-03-29T05:04:44;8.93;;;4.57;;
69754;SDS011;57023;52.218;5.158;2023-03-29T05:07:09;7.13;;;4.60;;
69754;SDS011;57023;52.218;5.158;2023-03-29T05:09:36;8.52;;;4.32;;
69754;SDS011;57023;52.218;5.158;2023-03-29T05:12:02;9.10;;;5.00;;
69754;SDS011;57023;52.218;5.158;2023-03-29T05:14:27;8.27;;;4.90;;
69754;SDS011;57023;52.218;5.158;2023-03-29T05:16:53;9.05;;;4.50;;
69754;SDS011;57023;52.218;5.158;2023-03-29T05:19:18;9.55;;;5.00;;
69754;SDS011;57023;52.218;5.158;2023-03-29T05:21:46;9.05;;;4.70;;
69754;SDS011;57023;52.218;5.158;2023-03-29T05:24:11;8.07;;;4.78;;
69754;SDS011;57023;52.218;5.158;2023-03-29T05:26:37;11.43;;;4.85;;
69754;SDS011;57023;52.218;5.158;2023-03-29T05:29:03;8.35;;;4.80;;
69754;SDS011;57023;52.218;5.158;2023-03-29T05:31:29;8.30;;;5.00;;
69754;SDS011;57023;52.218;5.158;2023-03-29T05:33:54;10.05;;;4.55;;
69754;SDS011;57023;52.218;5.158;2023-03-29T05:36:20;12.20;;;4.65;;
69754;SDS011;57023;52.218;5.158;2023-03-29T05:38:45;10.18;;;5.45;;
69754;SDS011;57023;52.218;5.158;2023-03-29T05:41:11;9.63;;;5.00;;
69754;SDS011;57023;52.218;5.158;2023-03-29T05:43:37;7.93;;;4.50;;
69754;SDS011;57023;52.218;5.158;2023-03-29T05:46:03;8.68;;;4.97;;
69754;SDS011;57023;52.218;5.158;2023-03-29T05:48:29;7.73;;;4.87;;
69754;SDS011;57023;52.218;5.158;2023-03-29T05:50:55;7.47;;;4.25;;
69754;SDS011;57023;52.218;5.158;2023-03-29T05:53:22;8.77;;;4.53;;
69754;SDS011;57023;52.218;5.158;2023-03-29T05:55:48;9.70;;;5.35;;
69754;SDS011;57023;52.218;5.158;2023-03-29T05:58:13;10.68;;;5.50;;
69754;SDS011;57023;52.218;5.158;2023-03-29T06:00:39;12.88;;;5.13;;
69754;SDS011;57023;52.218;5.158;2023-03-29T06:03:05;8.60;;;5.13;;
69754;SDS011;57023;52.218;5.158;2023-03-29T06:05:32;8.88;;;4.82;;
69754;SDS011;57023;52.218;5.158;2023-03-29T06:07:57;9.80;;;5.25;;
69754;SDS011;57023;52.218;5.158;2023-03-29T06:10:23;9.80;;;5.07;;
69754;SDS011;57023;52.218;5.158;2023-03-29T06:12:49;9.52;;;5.55;;
69754;SDS011;57023;52.218;5.158;2023-03-29T06:15:15;7.47;;;4.70;;
69754;SDS011;57023;52.218;5.158;2023-03-29T06:17:41;13.05;;;5.35;;
69754;SDS011;57023;52.218;5.158;2023-03-29T06:20:09;10.88;;;5.63;;
69754;SDS011;57023;52.218;5.158;2023-03-29T06:22:36;12.80;;;5.40;;
69754;SDS011;57023;52.218;5.158;2023-03-29T06:25:02;9.73;;;5.10;;
69754;SDS011;57023;52.218;5.158;2023-03-29T06:27:31;9.80;;;5.47;;
69754;SDS011;57023;52.218;5.158;2023-03-29T06:30:00;11.55;;;4.85;;
69754;SDS011;57023;52.218;5.158;2023-03-29T06:32:26;10.77;;;6.50;;
69754;SDS011;57023;52.218;5.158;2023-03-29T06:34:52;9.90;;;5.75;;
69754;SDS011;57023;52.218;5.158;2023-03-29T06:37:18;12.55;;;5.53;;
69754;SDS011;57023;52.218;5.158;2023-03-29T06:39:43;9.48;;;5.07;;
69754;SDS011;57023;52.218;5.158;2023-03-29T06:42:09;17.52;;;5.63;;
69754;SDS011;57023;52.218;5.158;2023-03-29T06:44:34;13.25;;;5.75;;
69754;SDS011;57023;52.218;5.158;2023-03-29T06:47:02;9.75;;;5.72;;
69754;SDS011;57023;52.218;5.158;2023-03-29T06:49:28;9.55;;;6.03;;
69754;SDS011;57023;52.218;5.158;2023-03-29T06:51:53;10.88;;;5.07;;
69754;SDS011;57023;52.218;5.158;2023-03-29T06:54:20;9.43;;;5.32;;
69754;SDS011;57023;52.218;5.158;2023-03-29T06:56:46;12.52;;;6.57;;
69754;SDS011;57023;52.218;5.158;2023-03-29T06:59:11;10.85;;;5.80;;
69754;SDS011;57023;52.218;5.158;2023-03-29T07:01:40;11.30;;;6.22;;
69754;SDS011;57023;52.218;5.158;2023-03-29T07:04:06;10.13;;;6.13;;
69754;SDS011;57023;52.218;5.158;2023-03-29T07:06:33;12.23;;;6.78;;
69754;SDS011;57023;52.218;5.158;2023-03-29T07:09:00;8.55;;;5.38;;
69754;SDS011;57023;52.218;5.158;2023-03-29T07:11:26;13.07;;;6.03;;
69754;SDS011;57023;52.218;5.158;2023-03-29T07:13:51;10.02;;;5.82;;
69754;SDS011;57023;52.218;5.158;2023-03-29T07:16:17;12.52;;;6.53;;
69754;SDS011;57023;52.218;5.158;2023-03-29T07:18:43;11.48;;;5.35;;
69754;SDS011;57023;52.218;5.158;2023-03-29T07:21:11;10.93;;;5.30;;
69754;SDS011;57023;52.218;5.158;2023-03-29T07:23:37;9.73;;;5.70;;
69754;SDS011;57023;52.218;5.158;2023-03-29T07:26:06;9.75;;;5.60;;
69754;SDS011;57023;52.218;5.158;2023-03-29T07:28:32;8.85;;;5.28;;
69754;SDS011;57023;52.218;5.158;2023-03-29T07:31:08;11.77;;;6.35;;
69754;SDS011;57023;52.218;5.158;2023-03-29T07:33:35;11.68;;;6.38;;
69754;SDS011;57023;52.218;5.158;2023-03-29T07:36:03;11.13;;;6.50;;
69754;SDS011;57023;52.218;5.158;2023-03-29T07:38:29;11.43;;;6.43;;
69754;SDS011;57023;52.218;5.158;2023-03-29T07:40:55;13.93;;;6.35;;
69754;SDS011;57023;52.218;5.158;2023-03-29T07:43:21;13.13;;;6.70;;
69754;SDS011;57023;52.218;5.158;2023-03-29T07:45:48;11.57;;;6.43;;
69754;SDS011;57023;52.218;5.158;2023-03-29T07:48:13;8.93;;;5.43;;
69754;SDS011;57023;52.218;5.158;2023-03-29T07:50:39;11.65;;;6.75;;
69754;SDS011;57023;52.218;5.158;2023-03-29T07:53:05;7.27;;;5.03;;
69754;SDS011;57023;52.218;5.158;2023-03-29T07:55:31;13.30;;;7.25;;
69754;SDS011;57023;52.218;5.158;2023-03-29T07:57:56;13.98;;;6.65;;
69754;SDS011;57023;52.218;5.158;2023-03-29T08:00:22;11.40;;;6.60;;
69754;SDS011;57023;52.218;5.158;2023-03-29T08:02:49;11.70;;;6.20;;
69754;SDS011;57023;52.218;5.158;2023-03-29T08:07:42;14.38;;;6.45;;
69754;SDS011;57023;52.218;5.158;2023-03-29T08:10:09;12.50;;;6.82;;
69754;SDS011;57023;52.218;5.158;2023-03-29T08:12:39;13.25;;;7.32;;
69754;SDS011;57023;52.218;5.158;2023-03-29T08:15:05;12.30;;;7.53;;
69754;SDS011;57023;52.218;5.158;2023-03-29T08:17:31;14.20;;;7.63;;
69754;SDS011;57023;52.218;5.158;2023-03-29T08:19:56;14.88;;;7.57;;
69754;SDS011;57023;52.218;5.158;2023-03-29T08:22:22;12.75;;;6.72;;
69754;SDS011;57023;52.218;5.158;2023-03-29T08:24:47;12.40;;;7.03;;
69754;SDS011;57023;52.218;5.158;2023-03-29T08:27:13;13.63;;;6.72;;
69754;SDS011;57023;52.218;5.158;2023-03-29T08:29:38;12.75;;;7.97;;
69754;SDS011;57023;52.218;5.158;2023-03-29T08:32:03;14.85;;;7.60;;
69754;SDS011;57023;52.218;5.158;2023-03-29T08:34:29;15.18;;;8.02;;
69754;SDS011;57023;52.218;5.158;2023-03-29T08:36:56;14.23;;;7.40;;
69754;SDS011;57023;52.218;5.158;2023-03-29T08:39:22;14.88;;;7.90;;
69754;SDS011;57023;52.218;5.158;2023-03-29T08:41:54;14.88;;;7.20;;
69754;SDS011;57023;52.218;5.158;2023-03-29T08:50:05;14.50;;;7.55;;
69754;SDS011;57023;52.218;5.158;2023-03-29T08:53:37;13.65;;;7.72;;
69754;SDS011;57023;52.218;5.158;2023-03-29T08:55:41;11.82;;;7.28;;
69754;SDS011;57023;52.218;5.158;2023-03-29T08:58:11;12.48;;;6.63;;
69754;SDS011;57023;52.218;5.158;2023-03-29T09:00:41;18.83;;;8.32;;
69754;SDS011;57023;52.218;5.158;2023-03-29T09:03:22;16.25;;;7.82;;
69754;SDS011;57023;52.218;5.158;2023-03-29T09:05:58;15.43;;;8.23;;
69754;SDS011;57023;52.218;5.158;2023-03-29T09:08:30;14.20;;;8.45;;
69754;SDS011;57023;52.218;5.158;2023-03-29T09:11:02;17.15;;;8.68;;
69754;SDS011;57023;52.218;5.158;2023-03-29T09:13:32;17.90;;;8.48;;
69754;SDS011;57023;52.218;5.158;2023-03-29T09:16:08;13.55;;;8.52;;
69754;SDS011;57023;52.218;5.158;2023-03-29T09:21:49;17.23;;;9.13;;
69754;SDS011;57023;52.218;5.158;2023-03-29T09:30:13;16.48;;;9.10;;
69754;SDS011;57023;52.218;5.158;2023-03-29T09:35:35;15.02;;;8.00;;
69754;SDS011;57023;52.218;5.158;2023-03-29T09:38:05;15.38;;;8.85;;
69754;SDS011;57023;52.218;5.158;2023-03-29T09:43:35;15.13;;;8.65;;
69754;SDS011;57023;52.218;5.158;2023-03-29T09:46:03;15.80;;;9.05;;
69754;SDS011;57023;52.218;5.158;2023-03-29T09:48:50;17.15;;;8.93;;
69754;SDS011;57023;52.218;5.158;2023-03-29T09:51:18;16.92;;;9.63;;
69754;SDS011;57023;52.218;5.158;2023-03-29T09:53:46;14.10;;;8.10;;
69754;SDS011;57023;52.218;5.158;2023-03-29T09:56:11;14.85;;;9.07;;
69754;SDS011;57023;52.218;5.158;2023-03-29T09:58:39;12.30;;;6.45;;
69754;SDS011;57023;52.218;5.158;2023-03-29T10:01:06;16.65;;;8.88;;
69754;SDS011;57023;52.218;5.158;2023-03-29T10:03:33;14.48;;;9.45;;
69754;SDS011;57023;52.218;5.158;2023-03-29T10:05:59;14.43;;;9.43;;
69754;SDS011;57023;52.218;5.158;2023-03-29T10:10:55;13.68;;;8.60;;
69754;SDS011;57023;52.218;5.158;2023-03-29T10:13:31;14.52;;;8.18;;
69754;SDS011;57023;52.218;5.158;2023-03-29T10:16:05;13.45;;;8.13;;
69754;SDS011;57023;52.218;5.158;2023-03-29T10:18:37;15.93;;;9.25;;
69754;SDS011;57023;52.218;5.158;2023-03-29T10:21:04;17.27;;;8.68;;
69754;SDS011;57023;52.218;5.158;2023-03-29T10:23:32;15.07;;;9.17;;
69754;SDS011;57023;52.218;5.158;2023-03-29T10:25:58;14.75;;;8.23;;
69754;SDS011;57023;52.218;5.158;2023-03-29T10:28:25;16.77;;;10.10;;
69754;SDS011;57023;52.218;5.158;2023-03-29T10:30:52;15.27;;;8.25;;
69754;SDS011;57023;52.218;5.158;2023-03-29T10:33:20;17.58;;;10.43;;
69754;SDS011;57023;52.218;5.158;2023-03-29T10:35:48;11.38;;;7.15;;
69754;SDS011;57023;52.218;5.158;2023-03-29T10:38:18;15.18;;;9.80;;
69754;SDS011;57023;52.218;5.158;2023-03-29T10:40:45;15.50;;;9.90;;
69754;SDS011;57023;52.218;5.158;2023-03-29T10:45:43;10.38;;;7.15;;
69754;SDS011;57023;52.218;5.158;2023-03-29T10:48:12;16.08;;;9.10;;
69754;SDS011;57023;52.218;5.158;2023-03-29T10:50:39;16.05;;;9.00;;
69754;SDS011;57023;52.218;5.158;2023-03-29T10:53:14;14.43;;;9.30;;
69754;SDS011;57023;52.218;5.158;2023-03-29T10:55:53;12.52;;;9.43;;
69754;SDS011;57023;52.218;5.158;2023-03-29T10:58:27;13.02;;;8.80;;
69754;SDS011;57023;52.218;5.158;2023-03-29T11:00:57;14.95;;;8.75;;
69754;SDS011;57023;52.218;5.158;2023-03-29T11:03:28;13.68;;;8.77;;
69754;SDS011;57023;52.218;5.158;2023-03-29T11:06:07;14.27;;;8.60;;
69754;SDS011;57023;52.218;5.158;2023-03-29T11:14:16;15.63;;;9.68;;
69754;SDS011;57023;52.218;5.158;2023-03-29T11:19:41;11.82;;;8.63;;
69754;SDS011;57023;52.218;5.158;2023-03-29T11:28:04;14.95;;;9.25;;
69754;SDS011;57023;52.218;5.158;2023-03-29T11:30:45;12.32;;;8.15;;
69754;SDS011;57023;52.218;5.158;2023-03-29T11:35:49;13.90;;;8.77;;
69754;SDS011;57023;52.218;5.158;2023-03-29T11:43:51;13.85;;;9.43;;
69754;SDS011;57023;52.218;5.158;2023-03-29T11:51:47;13.38;;;8.52;;
69754;SDS011;57023;52.218;5.158;2023-03-29T11:54:24;19.98;;;11.68;;
69754;SDS011;57023;52.218;5.158;2023-03-29T11:59:25;15.90;;;10.93;;
69754;SDS011;57023;52.218;5.158;2023-03-29T12:01:55;17.65;;;12.43;;
69754;SDS011;57023;52.218;5.158;2023-03-29T12:04:28;18.63;;;12.80;;
69754;SDS011;57023;52.218;5.158;2023-03-29T12:07:18;18.63;;;12.60;;
69754;SDS011;57023;52.218;5.158;2023-03-29T12:10:12;19.10;;;12.88;;
69754;SDS011;57023;52.218;5.158;2023-03-29T12:15:37;19.70;;;13.68;;
69754;SDS011;57023;52.218;5.158;2023-03-29T12:18:11;18.30;;;12.73;;
69754;SDS011;57023;52.218;5.158;2023-03-29T12:20:40;17.73;;;12.85;;
69754;SDS011;57023;52.218;5.158;2023-03-29T12:23:06;19.27;;;12.00;;
69754;SDS011;57023;52.218;5.158;2023-03-29T12:39:47;18.95;;;12.75;;
69754;SDS011;57023;52.218;5.158;2023-03-29T12:42:20;18.50;;;12.45;;
69754;SDS011;57023;52.218;5.158;2023-03-29T12:44:50;16.48;;;11.80;;
69754;SDS011;57023;52.218;5.158;2023-03-29T12:47:24;17.85;;;10.80;;
69754;SDS011;57023;52.218;5.158;2023-03-29T12:49:57;20.05;;;13.55;;
69754;SDS011;57023;52.218;5.158;2023-03-29T12:52:24;22.27;;;13.00;;
69754;SDS011;57023;52.218;5.158;2023-03-29T12:54:55;17.08;;;11.48;;
69754;SDS011;57023;52.218;5.158;2023-03-29T12:57:26;18.92;;;12.23;;
69754;SDS011;57023;52.218;5.158;2023-03-29T13:02:58;16.02;;;10.60;;
69754;SDS011;57023;52.218;5.158;2023-03-29T13:05:26;17.48;;;10.73;;
69754;SDS011;57023;52.218;5.158;2023-03-29T13:07:53;22.73;;;12.70;;
69754;SDS011;57023;52.218;5.158;2023-03-29T13:13:08;18.02;;;11.68;;
69754;SDS011;57023;52.218;5.158;2023-03-29T13:15:36;17.77;;;11.82;;
69754;SDS011;57023;52.218;5.158;2023-03-29T13:28:54;17.10;;;10.10;;
69754;SDS011;57023;52.218;5.158;2023-03-29T13:38:05;16.35;;;10.20;;
69754;SDS011;57023;52.218;5.158;2023-03-29T13:45:34;15.55;;;9.35;;
69754;SDS011;57023;52.218;5.158;2023-03-29T13:50:54;11.23;;;7.93;;
69754;SDS011;57023;52.218;5.158;2023-03-29T13:56:37;19.02;;;10.48;;
69754;SDS011;57023;52.218;5.158;2023-03-29T14:02:04;16.05;;;10.50;;
69754;SDS011;57023;52.218;5.158;2023-03-29T14:04:31;17.50;;;10.75;;
69754;SDS011;57023;52.218;5.158;2023-03-29T14:07:02;17.90;;;10.90;;
69754;SDS011;57023;52.218;5.158;2023-03-29T14:09:29;14.88;;;11.20;;
69754;SDS011;57023;52.218;5.158;2023-03-29T14:11:59;13.25;;;9.75;;
69754;SDS011;57023;52.218;5.158;2023-03-29T14:14:25;14.82;;;9.43;;
69754;SDS011;57023;52.218;5.158;2023-03-29T14:16:52;16.60;;;11.88;;
69754;SDS011;57023;52.218;5.158;2023-03-29T14:19:29;17.00;;;12.63;;
69754;SDS011;57023;52.218;5.158;2023-03-29T14:24:24;19.60;;;12.75;;
69754;SDS011;57023;52.218;5.158;2023-03-29T14:26:51;17.88;;;12.57;;
69754;SDS011;57023;52.218;5.158;2023-03-29T14:29:17;18.37;;;13.00;;
69754;SDS011;57023;52.218;5.158;2023-03-29T14:31:42;19.40;;;12.93;;
69754;SDS011;57023;52.218;5.158;2023-03-29T14:34:12;18.05;;;13.25;;
69754;SDS011;57023;52.218;5.158;2023-03-29T14:36:39;18.60;;;13.55;;
69754;SDS011;57023;52.218;5.158;2023-03-29T14:39:18;18.45;;;13.13;;
69754;SDS011;57023;52.218;5.158;2023-03-29T14:41:49;19.92;;;13.40;;
69754;SDS011;57023;52.218;5.158;2023-03-29T14:44:15;19.50;;;13.75;;
69754;SDS011;57023;52.218;5.158;2023-03-29T14:46:43;21.25;;;14.45;;
69754;SDS011;57023;52.218;5.158;2023-03-29T14:49:11;16.48;;;11.20;;
69754;SDS011;57023;52.218;5.158;2023-03-29T14:51:39;16.77;;;11.38;;
69754;SDS011;57023;52.218;5.158;2023-03-29T14:54:04;21.00;;;14.27;;
69754;SDS011;57023;52.218;5.158;2023-03-29T14:56:30;21.58;;;15.20;;
69754;SDS011;57023;52.218;5.158;2023-03-29T14:58:56;19.23;;;12.88;;
69754;SDS011;57023;52.218;5.158;2023-03-29T15:01:26;19.63;;;13.70;;
69754;SDS011;57023;52.218;5.158;2023-03-29T15:06:24;17.77;;;13.55;;
69754;SDS011;57023;52.218;5.158;2023-03-29T15:08:50;21.63;;;14.93;;
69754;SDS011;57023;52.218;5.158;2023-03-29T15:13:53;19.60;;;13.25;;
69754;SDS011;57023;52.218;5.158;2023-03-29T15:16:29;19.15;;;14.43;;
69754;SDS011;57023;52.218;5.158;2023-03-29T15:18:55;21.08;;;14.95;;
69754;SDS011;57023;52.218;5.158;2023-03-29T15:21:21;18.52;;;14.52;;
69754;SDS011;57023;52.218;5.158;2023-03-29T15:26:21;18.52;;;14.38;;
69754;SDS011;57023;52.218;5.158;2023-03-29T15:28:50;16.63;;;13.50;;
69754;SDS011;57023;52.218;5.158;2023-03-29T15:31:25;19.02;;;13.13;;
69754;SDS011;57023;52.218;5.158;2023-03-29T15:34:03;19.08;;;14.55;;
69754;SDS011;57023;52.218;5.158;2023-03-29T15:36:30;19.45;;;13.77;;
69754;SDS011;57023;52.218;5.158;2023-03-29T15:38:56;20.23;;;14.68;;
69754;SDS011;57023;52.218;5.158;2023-03-29T15:41:22;18.85;;;14.02;;
69754;SDS011;57023;52.218;5.158;2023-03-29T15:43:51;18.58;;;13.65;;
69754;SDS011;57023;52.218;5.158;2023-03-29T15:46:20;18.13;;;14.32;;
69754;SDS011;57023;52.218;5.158;2023-03-29T15:48:45;16.95;;;13.60;;
69754;SDS011;57023;52.218;5.158;2023-03-29T15:51:11;18.70;;;13.25;;
69754;SDS011;57023;52.218;5.158;2023-03-29T15:53:36;18.45;;;13.45;;
69754;SDS011;57023;52.218;5.158;2023-03-29T15:56:06;18.55;;;13.77;;
69754;SDS011;57023;52.218;5.158;2023-03-29T15:58:32;17.38;;;14.13;;
69754;SDS011;57023;52.218;5.158;2023-03-29T16:03:36;17.60;;;13.25;;
69754;SDS011;57023;52.218;5.158;2023-03-29T16:06:02;18.67;;;13.13;;
69754;SDS011;57023;52.218;5.158;2023-03-29T16:08:27;18.73;;;13.52;;
69754;SDS011;57023;52.218;5.158;2023-03-29T16:10:53;15.27;;;12.40;;
69754;SDS011;57023;52.218;5.158;2023-03-29T16:13:18;15.23;;;12.18;;
69754;SDS011;57023;52.218;5.158;2023-03-29T16:15:43;17.55;;;12.10;;
69754;SDS011;57023;52.218;5.158;2023-03-29T16:18:09;15.02;;;11.90;;
69754;SDS011;57023;52.218;5.158;2023-03-29T16:20:35;14.75;;;12.18;;
69754;SDS011;57023;52.218;5.158;2023-03-29T16:23:02;13.82;;;11.63;;
69754;SDS011;57023;52.218;5.158;2023-03-29T16:25:32;16.27;;;11.77;;
69754;SDS011;57023;52.218;5.158;2023-03-29T16:27:58;15.98;;;11.82;;
69754;SDS011;57023;52.218;5.158;2023-03-29T16:30:23;16.45;;;11.68;;
69754;SDS011;57023;52.218;5.158;2023-03-29T16:32:49;14.93;;;11.45;;
69754;SDS011;57023;52.218;5.158;2023-03-29T16:35:17;15.35;;;11.48;;
69754;SDS011;57023;52.218;5.158;2023-03-29T16:37:46;14.80;;;9.60;;
69754;SDS011;57023;52.218;5.158;2023-03-29T16:40:11;14.05;;;10.63;;
69754;SDS011;57023;52.218;5.158;2023-03-29T16:42:37;12.27;;;9.98;;
69754;SDS011;57023;52.218;5.158;2023-03-29T16:45:03;13.40;;;9.55;;
69754;SDS011;57023;52.218;5.158;2023-03-29T16:47:28;13.20;;;9.57;;
69754;SDS011;57023;52.218;5.158;2023-03-29T16:49:54;13.02;;;8.93;;
69754;SDS011;57023;52.218;5.158;2023-03-29T16:52:19;12.70;;;8.77;;
69754;SDS011;57023;52.218;5.158;2023-03-29T16:54:45;11.77;;;8.63;;
69754;SDS011;57023;52.218;5.158;2023-03-29T16:57:10;12.10;;;8.20;;
69754;SDS011;57023;52.218;5.158;2023-03-29T16:59:36;9.93;;;7.50;;
69754;SDS011;57023;52.218;5.158;2023-03-29T17:02:01;9.88;;;7.32;;
69754;SDS011;57023;52.218;5.158;2023-03-29T17:04:27;12.50;;;8.05;;
69754;SDS011;57023;52.218;5.158;2023-03-29T17:06:52;11.48;;;8.27;;
69754;SDS011;57023;52.218;5.158;2023-03-29T17:09:18;10.60;;;7.45;;